KDFW/DFW METAR and TAF weather

Enter ICAO airport designator
Station Type Date Time Source
KDFW METAR 2017/08/21 22:53 UTC NOAA

KDFW 212253Z 16006KT 10SM SCT060 34/20 A3000 RMK AO2 SLP149 T03390200


Station Type Date Time Source
KDFW Decoded METAR 2017/08/21 22:53 UTC NOAA

DALLAS/FT. WORTH INTERNATIONAL AIRPORT , TX, United States (KDFW) 32-54N 097-02W 174M
Aug 21, 2017 - 06:53 PM EDT / 2017.08.21 2253 UTC
Wind: from the SSE (160 degrees) at 7 MPH (6 KT):0
Visibility: 10 mile(s):0
Sky conditions: partly cloudy
Temperature: 93.0 F (33.9 C)
Heat index: 97.3 F (36.3 C):1
Dew Point: 68.0 F (20.0 C)
Relative Humidity: 44%
Pressure (altimeter): 30 in. Hg (1015 hPa)
ob: KDFW 212253Z 16006KT 10SM SCT060 34/20 A3000 RMK AO2 SLP149 T03390200
cycle: 23

Station Type Date Time Source
KDFW TAF 2017/08/21 21:54 UTC NOAA

TAF
AMD KDFW 212053Z 2121/2224 17010KT P6SM SCT080


Example: see airport list